Rainham, United Kingdom
Current Conditions -  °F | °C
As of 7:20 PM on Saturday 25 Oct 2014 (Local Time) from EGLC Reporting Station
Broken Clouds Broken Clouds  
Wind Chill: 14°   Ceiling: 4000
Heat Index: 14°   Visibility: 6mi
Dew Point:   Wind: 7mph
Humidity: 67%   Direction: 230°SW
Pressure: 30.12"   Gusts: NA
Location:  51.53°N, 0.19°E
Report Text: EGLC 251820Z AUTO 23006KT 9999 BKN040/// 14/08 Q1020
Loading
Personal Weather Stations






























Interactive Weather Map
Tropical Storm Tracking
New forecast layout! Learn more

10-Day Weather Forecast

Advertisements
Track Severe Weather on mobile